Time;durP1;ratioP1;P1;durP2;ratioP2;P2;SDS_P1;SDS_P2;PMS_P1;PMS_P2;Temp;Humidity;BMP_temperature;BMP_pressure;BME280_temperature;BME280_humidity;BME280_pressure;Samples;Min_cycle;Max_cycle;Signal;HPM_P1;HPM_P2
2022/03/17 00:01:29;;;;;;;95.85;39.75;;;;;;;4.65;nan;101470.63;5102990;28;20044;-72
2022/03/17 00:03:54;;;;;;;189.70;43.28;;;;;;;4.57;nan;101460.16;5102034;28;20051;-72
2022/03/17 00:06:19;;;;;;;99.60;41.22;;;;;;;4.57;nan;101462.75;5097577;28;20390;-72
2022/03/17 00:08:45;;;;;;;101.22;40.25;;;;;;;4.64;nan;101482.03;5089502;28;20028;-72
2022/03/17 00:11:10;;;;;;;101.10;40.72;;;;;;;4.55;nan;101456.91;5089650;28;20032;-72
2022/03/17 00:13:36;;;;;;;101.03;40.35;;;;;;;4.65;nan;101475.03;5060533;28;20493;-73
2022/03/17 00:16:01;;;;;;;95.88;40.58;;;;;;;4.61;nan;101465.88;5089707;28;20115;-73
2022/03/17 00:18:27;;;;;;;93.68;41.00;;;;;;;4.68;nan;101478.13;5089734;28;20101;-72
2022/03/17 00:20:52;;;;;;;94.90;39.42;;;;;;;4.66;nan;101482.69;5089356;28;20027;-73
2022/03/17 00:23:18;;;;;;;91.70;40.25;;;;;;;4.65;nan;101488.09;5071339;28;20032;-72
2022/03/17 00:25:44;;;;;;;96.97;40.80;;;;;;;4.63;nan;101482.19;5089086;28;20035;-71
2022/03/17 00:28:10;;;;;;;90.55;40.08;;;;;;;4.64;nan;101491.66;5089825;28;20036;-72
2022/03/17 00:30:35;;;;;;;95.90;42.13;;;;;;;4.57;nan;101481.03;5087554;28;20039;-72
2022/03/17 00:33:01;;;;;;;99.63;41.30;;;;;;;4.65;nan;101501.13;5088381;28;20036;-72
2022/03/17 00:35:35;;;;;;;104.68;41.55;;;;;;;4.64;nan;101489.03;5082245;28;20425;-72
2022/03/17 00:38:07;;;;;;;99.32;41.38;;;;;;;4.62;nan;101483.16;5088775;28;20028;-72
2022/03/17 00:40:33;;;;;;;97.40;40.63;;;;;;;4.68;nan;101500.81;5085499;28;20578;-72
2022/03/17 00:42:59;;;;;;;101.38;41.00;;;;;;;4.69;nan;101490.22;5092737;28;20063;-72
2022/03/17 00:45:25;;;;;;;95.70;40.55;;;;;;;4.71;nan;101490.03;5092558;28;20107;-72
2022/03/17 00:47:51;;;;;;;96.35;40.05;;;;;;;4.71;nan;101497.06;5074559;28;20404;-70
2022/03/17 00:50:16;;;;;;;97.72;39.75;;;;;;;4.71;nan;101497.06;5092371;28;20035;-70
2022/03/17 00:52:42;;;;;;;96.88;39.75;;;;;;;4.70;nan;101496.25;5092676;28;20027;-70
2022/03/17 00:55:08;;;;;;;96.25;40.30;;;;;;;4.65;nan;101496.72;5092365;28;20032;-70
2022/03/17 00:57:36;;;;;;;96.70;39.88;;;;;;;4.65;nan;101503.75;5074018;28;20032;-69
2022/03/17 01:00:04;;;;;;;93.15;39.55;;;;;;;4.59;nan;101494.72;5078583;28;20056;-70
2022/03/17 01:02:29;;;;;;;94.07;38.22;;;;;;;4.62;nan;101506.63;5090921;28;20066;-72
2022/03/17 01:04:54;;;;;;;92.90;38.63;;;;;;;4.62;nan;101499.66;5079242;28;20697;-71
2022/03/17 01:07:20;;;;;;;89.55;36.70;;;;;;;4.56;nan;101507.28;5092270;28;20542;-71
2022/03/17 01:09:45;;;;;;;90.30;37.95;;;;;;;4.48;nan;101488.03;5077311;28;20082;-72
2022/03/17 01:12:11;;;;;;;87.35;37.15;;;;;;;4.63;nan;101519.53;5085754;28;20490;-71
2022/03/17 01:14:36;;;;;;;90.32;37.47;;;;;;;4.61;nan;101516.25;5092307;28;20035;-72
2022/03/17 01:17:02;;;;;;;94.32;37.10;;;;;;;4.58;nan;101516.59;5090860;28;20042;-72
2022/03/17 01:19:27;;;;;;;97.90;38.75;;;;;;;4.62;nan;101522.28;5092484;28;20063;-71
2022/03/17 01:21:52;;;;;;;112.35;37.92;;;;;;;4.58;nan;101528.81;5078426;28;20028;-72
2022/03/17 01:24:18;;;;;;;92.53;37.90;;;;;;;4.58;nan;101524.41;5084805;28;20063;-68
2022/03/17 01:26:45;;;;;;;94.60;38.90;;;;;;;4.55;nan;101529.13;5084067;28;20020;-68
2022/03/17 01:29:10;;;;;;;97.68;39.08;;;;;;;4.47;nan;101520.28;5091383;28;20032;-70
2022/03/17 01:31:36;;;;;;;93.78;38.72;;;;;;;4.55;nan;101527.34;5091737;28;20024;-69
2022/03/17 01:34:02;;;;;;;98.97;37.40;;;;;;;4.47;nan;101522.88;5091613;28;20486;-69
2022/03/17 01:36:27;;;;;;;92.85;36.08;;;;;;;4.47;nan;101525.50;5088217;28;20127;-68
2022/03/17 01:38:53;;;;;;;95.85;36.05;;;;;;;4.52;nan;101535.47;5075182;28;20440;-69
2022/03/17 01:41:19;;;;;;;94.43;35.88;;;;;;;4.53;nan;101541.53;5086815;28;20073;-72
2022/03/17 01:43:44;;;;;;;88.20;36.63;;;;;;;4.52;nan;101543.28;5086144;28;20394;-72
2022/03/17 01:46:11;;;;;;;88.05;35.95;;;;;;;4.51;nan;101540.84;5088031;28;20517;-72
2022/03/17 01:48:37;;;;;;;91.22;36.13;;;;;;;4.46;nan;101542.13;5090806;28;20032;-72
2022/03/17 01:51:03;;;;;;;86.60;36.85;;;;;;;4.53;nan;101549.34;5089890;28;20035;-71
2022/03/17 01:53:29;;;;;;;98.85;37.28;;;;;;;4.47;nan;101542.94;5083874;28;20081;-72
2022/03/17 01:55:54;;;;;;;85.57;35.55;;;;;;;4.44;nan;101541.47;5090516;28;20494;-72
2022/03/17 01:58:20;;;;;;;88.22;37.17;;;;;;;4.43;nan;101541.63;5079551;28;20040;-72
2022/03/17 02:00:46;;;;;;;81.05;35.10;;;;;;;4.46;nan;101549.97;5076177;28;20039;-73
2022/03/17 02:03:12;;;;;;;81.65;36.80;;;;;;;4.36;nan;101532.81;5092874;28;20063;-72
2022/03/17 02:05:38;;;;;;;81.03;36.28;;;;;;;4.39;nan;101548.13;5095843;28;20517;-73
2022/03/17 02:08:08;;;;;;;80.07;33.97;;;;;;;4.43;nan;101554.66;5092045;28;20106;-73
2022/03/17 02:13:08;;;;;;;82.65;34.08;;;;;;;4.29;nan;101532.59;5111195;28;20028;-72
2022/03/17 02:13:19;;;;;;;82.47;33.92;;;;;;;4.38;nan;101557.75;5105539;28;20036;-72
2022/03/17 02:15:50;;;;;;;72.60;33.67;;;;;;;4.21;nan;101533.38;5105273;28;20035;-72
2022/03/17 02:18:16;;;;;;;69.85;32.08;;;;;;;4.35;nan;101552.84;5095167;28;20027;-72
2022/03/17 02:20:42;;;;;;;79.90;32.30;;;;;;;4.30;nan;101546.47;5086219;28;20042;-73
2022/03/17 02:26:00;;;;;;;73.00;31.55;;;;;;;4.31;nan;101559.34;5103045;28;20402;-73
2022/03/17 02:28:27;;;;;;;67.65;31.13;;;;;;;4.35;nan;101575.50;5095444;28;20040;-69
2022/03/17 02:30:54;;;;;;;68.80;31.95;;;;;;;4.20;nan;101555.19;5072677;28;20367;-70
2022/03/17 02:33:19;;;;;;;69.20;31.90;;;;;;;4.32;nan;101571.41;5080295;28;20044;-70
2022/03/17 02:35:47;;;;;;;73.72;32.22;;;;;;;4.06;nan;101537.53;5090653;28;20422;-69
2022/03/17 02:38:16;;;;;;;68.00;31.73;;;;;;;4.24;nan;101561.75;5096045;28;20029;-70
2022/03/17 02:40:48;;;;;;;77.93;32.70;;;;;;;4.31;nan;101574.16;5103048;28;20123;-69
2022/03/17 02:43:18;;;;;;;84.55;33.70;;;;;;;4.32;nan;101579.22;5108663;28;20027;-69
2022/03/17 02:45:45;;;;;;;70.72;32.58;;;;;;;4.21;nan;101554.25;5105102;28;20423;-70
2022/03/17 02:48:11;;;;;;;72.25;32.50;;;;;;;4.35;nan;101586.72;5108078;28;20027;-69
2022/03/17 02:50:37;;;;;;;74.50;33.40;;;;;;;4.28;nan;101575.28;5086177;28;20032;-70
2022/03/17 02:53:10;;;;;;;78.10;32.88;;;;;;;4.34;nan;101585.09;5094476;28;20071;-70
2022/03/17 02:55:38;;;;;;;76.20;33.42;;;;;;;4.36;nan;101595.41;5077937;28;20036;-70
2022/03/17 02:58:07;;;;;;;74.93;33.13;;;;;;;4.14;nan;101562.81;5107954;28;20220;-69
2022/03/17 03:00:34;;;;;;;75.72;34.33;;;;;;;4.35;nan;101596.34;5106219;28;20501;-71
2022/03/17 03:03:00;;;;;;;75.95;33.50;;;;;;;4.30;nan;101593.38;5102344;28;20047;-71
2022/03/17 03:05:26;;;;;;;75.53;32.67;;;;;;;4.28;nan;101592.72;5110203;28;20032;-71
2022/03/17 03:07:52;;;;;;;79.53;33.22;;;;;;;4.38;nan;101596.88;5091847;28;20031;-70
2022/03/17 03:10:18;;;;;;;65.50;31.88;;;;;;;4.28;nan;101592.72;5099443;28;20039;-70
2022/03/17 03:12:43;;;;;;;70.15;31.73;;;;;;;4.33;nan;101598.28;5107448;28;20538;-69
2022/03/17 03:15:09;;;;;;;62.50;31.23;;;;;;;4.32;nan;101597.47;5084102;28;20040;-71
2022/03/17 03:17:35;;;;;;;68.03;31.35;;;;;;;4.31;nan;101608.06;5104454;28;20132;-68
2022/03/17 03:20:00;;;;;;;67.95;31.70;;;;;;;4.30;nan;101607.25;5102326;28;20059;-69
2022/03/17 03:22:29;;;;;;;76.70;30.80;;;;;;;4.30;nan;101616.84;5109280;28;20032;-70
2022/03/17 03:24:57;;;;;;;66.38;31.75;;;;;;;4.29;nan;101613.44;5108033;28;20122;-73
2022/03/17 03:27:27;;;;;;;72.78;32.47;;;;;;;4.32;nan;101612.31;5099328;28;20070;-72
2022/03/17 03:29:57;;;;;;;74.57;31.77;;;;;;;4.31;nan;101616.72;5102905;28;20473;-73
2022/03/17 03:32:24;;;;;;;66.35;31.13;;;;;;;4.40;nan;101628.00;5089791;28;20049;-71
2022/03/17 03:34:49;;;;;;;63.97;30.90;;;;;;;4.36;nan;101618.88;5107456;28;20825;-72
2022/03/17 03:37:24;;;;;;;67.53;32.13;;;;;;;4.32;nan;101618.34;5121786;28;20031;-73
2022/03/17 03:39:55;;;;;;;69.63;31.48;;;;;;;4.38;nan;101629.94;5111176;28;20036;-73
2022/03/17 03:42:21;;;;;;;72.10;32.17;;;;;;;4.34;nan;101629.44;5121852;28;20169;-72
2022/03/17 03:44:47;;;;;;;67.65;32.75;;;;;;;4.35;nan;101638.88;5117830;28;20088;-70
2022/03/17 03:47:13;;;;;;;73.28;32.10;;;;;;;4.24;nan;101613.91;5087003;28;20118;-73
2022/03/17 03:49:40;;;;;;;65.93;30.58;;;;;;;4.35;nan;101641.50;5100073;28;20477;-74
2022/03/17 03:52:13;;;;;;;65.63;31.27;;;;;;;4.22;nan;101621.03;5094257;28;20040;-73
2022/03/17 03:54:39;;;;;;;63.53;30.00;;;;;;;4.22;nan;101633.28;5108964;28;20031;-73
2022/03/17 03:57:06;;;;;;;59.88;29.08;;;;;;;4.34;nan;101649.50;5106357;28;20076;-73
2022/03/17 03:59:32;;;;;;;55.00;28.85;;;;;;;4.31;nan;101644.56;5085770;28;20071;-73
2022/03/17 04:02:02;;;;;;;60.35;28.60;;;;;;;4.33;nan;101656.47;5101972;28;20051;-73
2022/03/17 04:04:29;;;;;;;61.45;29.10;;;;;;;4.22;nan;101641.09;5109592;28;20145;-73
2022/03/17 04:07:01;;;;;;;64.30;28.00;;;;;;;4.33;nan;101666.09;5110197;28;20039;-73
2022/03/17 04:09:40;;;;;;;54.88;26.48;;;;;;;4.33;nan;101671.31;5107271;28;20450;-73
2022/03/17 04:12:07;;;;;;;56.85;27.85;;;;;;;4.33;nan;101676.53;5092409;28;20032;-73
2022/03/17 04:14:33;;;;;;;59.63;28.55;;;;;;;4.32;nan;101683.53;5087065;28;20077;-72
2022/03/17 04:17:00;;;;;;;56.20;26.42;;;;;;;4.32;nan;101683.53;5100869;28;20028;-74
2022/03/17 04:19:26;;;;;;;63.63;27.88;;;;;;;4.20;nan;101671.72;5113612;28;20027;-73
2022/03/17 04:21:52;;;;;;;62.83;28.25;;;;;;;4.20;nan;101677.72;5099241;28;20027;-73
2022/03/17 04:24:19;;;;;;;63.58;28.77;;;;;;;4.32;nan;101701.78;5113318;28;20040;-74
2022/03/17 04:26:45;;;;;;;63.03;28.33;;;;;;;4.32;nan;101703.56;5111803;28;20431;-74
2022/03/17 04:29:12;;;;;;;62.67;27.67;;;;;;;4.29;nan;101699.47;5089014;28;20035;-74
2022/03/17 04:31:39;;;;;;;67.50;28.63;;;;;;;4.28;nan;101710.88;5100080;28;20621;-73
2022/03/17 04:34:05;;;;;;;58.55;28.67;;;;;;;4.32;nan;101716.63;5108807;28;20028;-73
2022/03/17 04:36:31;;;;;;;60.33;28.95;;;;;;;4.28;nan;101710.06;5086591;28;20036;-74
2022/03/17 04:38:57;;;;;;;63.17;28.35;;;;;;;4.23;nan;101713.13;5098446;28;20028;-74
2022/03/17 04:41:23;;;;;;;60.60;28.85;;;;;;;4.07;nan;101692.97;5109892;28;20031;-73
2022/03/17 04:43:49;;;;;;;64.63;29.80;;;;;;;4.30;nan;101721.97;5097290;28;20125;-72
2022/03/17 04:46:14;;;;;;;63.83;28.55;;;;;;;4.33;nan;101736.50;5112334;28;20484;-73
2022/03/17 04:48:40;;;;;;;61.80;30.35;;;;;;;4.18;nan;101726.59;5090484;28;20689;-74
2022/03/17 04:51:06;;;;;;;64.65;28.63;;;;;;;4.23;nan;101733.97;5074234;28;20047;-73
2022/03/17 04:53:32;;;;;;;66.40;30.27;;;;;;;4.22;nan;101740.16;5101207;28;20500;-72
2022/03/17 04:56:09;;;;;;;72.63;31.83;;;;;;;4.31;nan;101762.75;5110060;28;20056;-73
2022/03/17 04:58:37;;;;;;;72.90;30.80;;;;;;;4.24;nan;101753.88;5106451;28;20042;-73
2022/03/17 05:01:04;;;;;;;71.55;31.40;;;;;;;4.31;nan;101770.56;5107103;28;20048;-72
2022/03/17 05:03:31;;;;;;;73.53;30.15;;;;;;;4.31;nan;101767.97;5112689;28;20042;-73
2022/03/17 05:05:56;;;;;;;63.50;29.35;;;;;;;4.26;nan;101759.72;5104416;28;20027;-72
2022/03/17 05:08:22;;;;;;;70.20;29.83;;;;;;;4.25;nan;101768.53;5088205;28;20104;-74
2022/03/17 05:10:48;;;;;;;67.97;28.88;;;;;;;4.30;nan;101784.56;5098525;28;20114;-73
2022/03/17 05:13:16;;;;;;;68.85;30.65;;;;;;;4.20;nan;101770.78;5095686;28;20036;-77
2022/03/17 05:15:42;;;;;;;77.00;32.92;;;;;;;4.28;nan;101786.47;5113018;28;20035;-74
2022/03/17 05:18:08;;;;;;;65.05;28.73;;;;;;;4.19;nan;101777.78;5095026;28;20047;-76
2022/03/17 05:20:35;;;;;;;66.63;31.15;;;;;;;4.30;nan;101794.16;5109326;28;20504;-74
2022/03/17 05:23:06;;;;;;;78.05;32.85;;;;;;;4.33;nan;101791.25;5089278;28;20040;-75
2022/03/17 05:25:32;;;;;;;76.28;32.08;;;;;;;4.34;nan;101793.72;5074081;28;20070;-75
2022/03/17 05:27:58;;;;;;;75.50;31.80;;;;;;;4.32;nan;101795.66;5097721;28;20028;-75
2022/03/17 05:30:24;;;;;;;72.40;31.02;;;;;;;4.32;nan;101794.84;5108495;28;20864;-74
2022/03/17 05:32:49;;;;;;;71.90;30.73;;;;;;;4.22;nan;101787.09;5086490;28;20031;-75
2022/03/17 05:35:16;;;;;;;68.25;31.20;;;;;;;4.30;nan;101802.81;5099034;28;20390;-76
2022/03/17 05:37:42;;;;;;;65.25;28.15;;;;;;;4.30;nan;101802.00;5101210;28;20036;-76
2022/03/17 05:40:17;;;;;;;63.75;27.25;;;;;;;4.21;nan;101801.94;5108550;28;20418;-75
2022/03/17 05:42:45;;;;;;;60.30;26.95;;;;;;;4.32;nan;101815.72;5108940;28;20069;-74
2022/03/17 05:45:11;;;;;;;57.40;27.23;;;;;;;4.30;nan;101818.44;5112380;28;20032;-75
2022/03/17 05:47:39;;;;;;;54.30;24.50;;;;;;;4.34;nan;101821.59;5103817;28;20036;-75
2022/03/17 05:50:07;;;;;;;56.95;25.98;;;;;;;4.29;nan;101816.00;5091457;28;20131;-75
2022/03/17 05:52:32;;;;;;;52.00;24.20;;;;;;;4.21;nan;101798.47;5097831;28;20032;-73
2022/03/17 05:54:58;;;;;;;54.75;24.95;;;;;;;4.31;nan;101814.88;5112483;28;20101;-74
2022/03/17 05:57:24;;;;;;;49.65;23.58;;;;;;;4.34;nan;101814.59;5108552;28;20055;-75
2022/03/17 05:59:49;;;;;;;55.15;24.23;;;;;;;4.36;nan;101819.66;5079838;28;20603;-74
2022/03/17 06:02:14;;;;;;;47.97;22.70;;;;;;;4.33;nan;101818.16;5080996;28;20486;-74
2022/03/17 06:04:41;;;;;;;51.58;23.30;;;;;;;4.12;nan;101783.72;5083520;28;20040;-72
2022/03/17 06:07:07;;;;;;;48.00;22.48;;;;;;;4.28;nan;101816.97;5090287;28;20097;-74
2022/03/17 06:09:32;;;;;;;47.45;21.40;;;;;;;4.40;nan;101836.63;5077416;28;20408;-74
2022/03/17 06:11:58;;;;;;;41.47;21.65;;;;;;;4.36;nan;101822.28;5089189;28;20071;-74
2022/03/17 06:14:24;;;;;;;43.85;20.90;;;;;;;4.38;nan;101826.38;5083394;28;20097;-74
2022/03/17 06:16:50;;;;;;;36.60;17.80;;;;;;;4.38;nan;101823.75;5084282;28;20043;-76
2022/03/17 06:19:15;;;;;;;38.85;18.25;;;;;;;4.43;nan;101829.34;5083107;28;20122;-72
2022/03/17 06:21:41;;;;;;;35.03;17.20;;;;;;;4.46;nan;101830.84;5084261;28;20028;-73
2022/03/17 06:24:06;;;;;;;38.85;18.58;;;;;;;4.40;nan;101826.19;5072006;28;20040;-73
2022/03/17 06:26:32;;;;;;;28.52;15.27;;;;;;;4.50;nan;101837.38;5072775;28;20098;-73
2022/03/17 06:28:57;;;;;;;31.15;15.90;;;;;;;4.55;nan;101840.38;5082426;28;20417;-73
2022/03/17 06:31:22;;;;;;;29.63;15.30;;;;;;;4.44;nan;101825.75;5081024;28;20033;-73
2022/03/17 06:33:48;;;;;;;28.02;14.23;;;;;;;4.55;nan;101849.97;5068998;28;20036;-73
2022/03/17 06:36:13;;;;;;;23.38;14.07;;;;;;;4.55;nan;101842.13;5082584;28;20093;-72
2022/03/17 06:38:39;;;;;;;22.85;12.93;;;;;;;4.60;nan;101858.19;5087630;28;20036;-73
2022/03/17 06:41:04;;;;;;;21.00;11.80;;;;;;;4.64;nan;101873.38;5085226;28;20132;-72
2022/03/17 06:43:30;;;;;;;20.48;12.45;;;;;;;4.59;nan;101867.78;5086320;28;20032;-73
2022/03/17 06:45:55;;;;;;;20.25;11.57;;;;;;;4.66;nan;101868.81;5080770;28;20078;-74
2022/03/17 06:48:20;;;;;;;21.27;11.90;;;;;;;4.67;nan;101869.66;5077537;28;20067;-72
2022/03/17 06:50:46;;;;;;;19.33;11.48;;;;;;;4.70;nan;101882.41;5082738;28;20044;-72
2022/03/17 06:53:11;;;;;;;18.98;11.35;;;;;;;4.66;nan;101873.22;5080060;28;20394;-70
2022/03/17 06:55:37;;;;;;;18.90;11.23;;;;;;;4.67;nan;101880.09;5069928;28;20084;-72
2022/03/17 06:58:03;;;;;;;18.92;11.20;;;;;;;4.72;nan;101885.69;5085239;28;20040;-71
2022/03/17 07:00:28;;;;;;;26.67;13.30;;;;;;;4.77;nan;101885.25;5081886;28;20509;-72
2022/03/17 07:02:54;;;;;;;20.65;11.85;;;;;;;4.74;nan;101886.38;5107309;28;20027;-73
2022/03/17 07:05:19;;;;;;;19.92;11.57;;;;;;;4.68;nan;101872.09;5110096;28;20035;-73
2022/03/17 07:07:45;;;;;;;18.52;11.38;;;;;;;4.78;nan;101887.69;5096122;28;20427;-72
2022/03/17 07:10:12;;;;;;;19.20;11.10;;;;;;;4.81;nan;101889.19;5089484;28;20036;-72
2022/03/17 07:12:39;;;;;;;20.23;11.98;;;;;;;4.81;nan;101892.63;5102627;28;20427;-72
2022/03/17 07:15:05;;;;;;;22.38;12.32;;;;;;;4.78;nan;101879.84;5115076;28;20474;-72
2022/03/17 07:17:39;;;;;;;20.05;11.35;;;;;;;4.84;nan;101891.50;5109206;28;20046;-72
2022/03/17 07:20:16;;;;;;;17.33;10.70;;;;;;;4.81;nan;101890.03;5114744;28;20027;-71
2022/03/17 07:22:44;;;;;;;20.17;11.95;;;;;;;4.79;nan;101886.72;5103801;28;20027;-73
2022/03/17 07:25:11;;;;;;;19.58;11.48;;;;;;;4.87;nan;101907.66;5113236;28;20027;-73
2022/03/17 07:27:42;;;;;;;18.42;11.20;;;;;;;4.86;nan;101900.81;5104375;28;20062;-72
2022/03/17 07:30:09;;;;;;;18.52;10.90;;;;;;;4.94;nan;101920.13;5094941;28;20393;-71
2022/03/17 07:32:35;;;;;;;19.20;11.75;;;;;;;4.86;nan;101899.97;5110423;28;20481;-72
2022/03/17 07:35:00;;;;;;;19.85;11.50;;;;;;;4.93;nan;101908.84;5089061;28;20035;-73
2022/03/17 07:37:26;;;;;;;19.83;10.35;;;;;;;4.93;nan;101911.47;5110009;28;20031;-72
2022/03/17 07:39:51;;;;;;;18.73;10.93;;;;;;;4.97;nan;101914.59;5109446;28;20061;-73
2022/03/17 07:42:17;;;;;;;16.60;10.13;;;;;;;4.78;nan;101889.47;5102902;28;20858;-73
2022/03/17 07:44:42;;;;;;;17.00;10.80;;;;;;;4.78;nan;101887.69;5083255;28;20040;-71
2022/03/17 07:47:08;;;;;;;19.05;11.30;;;;;;;4.99;nan;101926.53;5095591;28;20035;-71
2022/03/17 07:49:37;;;;;;;16.63;10.70;;;;;;;5.04;nan;101934.72;5099909;28;20035;-71
2022/03/17 07:52:04;;;;;;;19.70;11.25;;;;;;;5.05;nan;101935.56;5106354;28;20064;-72
2022/03/17 07:54:30;;;;;;;22.08;11.70;;;;;;;4.94;nan;101926.16;5079813;28;20028;-72
2022/03/17 07:56:56;;;;;;;19.73;11.38;;;;;;;5.00;nan;101933.38;5091104;28;20101;-72
2022/03/17 07:59:21;;;;;;;21.00;12.77;;;;;;;5.06;nan;101945.84;5093650;28;20054;-73
2022/03/17 08:01:47;;;;;;;21.15;11.00;;;;;;;5.08;nan;101948.31;5113994;28;20055;-72
2022/03/17 08:04:12;;;;;;;19.63;11.68;;;;;;;4.96;nan;101931.25;5113835;28;20051;-72
2022/03/17 08:06:38;;;;;;;20.55;12.20;;;;;;;5.11;nan;101955.84;5085002;28;20039;-72
2022/03/17 08:09:03;;;;;;;20.42;12.70;;;;;;;5.04;nan;101936.53;5112706;28;21311;-74
2022/03/17 08:11:29;;;;;;;20.80;11.93;;;;;;;5.06;nan;101934.59;5107961;28;20469;-73
2022/03/17 08:13:54;;;;;;;20.75;11.75;;;;;;;5.06;nan;101937.22;5111233;28;20397;-68
2022/03/17 08:16:20;;;;;;;23.75;13.15;;;;;;;5.18;nan;101956.88;5089514;28;20435;-69
2022/03/17 08:18:45;;;;;;;19.20;11.35;;;;;;;5.17;nan;101947.44;5086942;28;20028;-69
2022/03/17 08:21:13;;;;;;;17.95;11.57;;;;;;;5.15;nan;101949.38;5087741;28;20032;-73
2022/03/17 08:23:38;;;;;;;22.60;12.20;;;;;;;5.23;nan;101954.63;5105545;28;20028;-72
2022/03/17 08:26:03;;;;;;;23.02;13.30;;;;;;;5.36;nan;101967.28;5093084;28;20043;-74
2022/03/17 08:28:29;;;;;;;25.23;13.75;;;;;;;5.39;nan;101961.78;5096793;28;20064;-74
2022/03/17 08:30:55;;;;;;;25.20;13.93;;;;;;;5.30;nan;101947.84;5096016;28;20032;-73
2022/03/17 08:33:20;;;;;;;21.63;13.43;;;;;;;5.38;nan;101952.28;5074496;28;20172;-73
2022/03/17 08:35:46;;;;;;;21.83;13.43;;;;;;;5.34;nan;101961.44;5094447;28;20481;-73
2022/03/17 08:38:12;;;;;;;18.65;12.00;;;;;;;5.44;nan;101982.25;5110074;28;20046;-73
2022/03/17 08:40:38;;;;;;;20.70;12.98;;;;;;;5.46;nan;101986.34;5112651;28;20047;-73
2022/03/17 08:43:05;;;;;;;21.45;12.82;;;;;;;5.42;nan;101992.81;5096573;28;20047;-70
2022/03/17 08:51:00;;;;;;;22.92;13.07;;;;;;;5.38;nan;101985.44;5099029;28;20169;-75
2022/03/17 08:53:25;;;;;;;35.58;18.27;;;;;;;5.47;nan;102000.22;5089318;28;20570;-69
2022/03/17 08:55:52;;;;;;;25.23;14.30;;;;;;;5.41;nan;101993.81;5105594;28;20032;-69
2022/03/17 08:58:17;;;;;;;34.42;18.58;;;;;;;5.56;nan;102006.34;5099472;28;20117;-73
2022/03/17 09:00:44;;;;;;;27.52;15.40;;;;;;;5.63;nan;102008.19;5096991;28;20127;-73
2022/03/17 09:03:09;;;;;;;24.27;14.90;;;;;;;5.68;nan;102008.53;5098422;28;20036;-73
2022/03/17 09:05:35;;;;;;;37.42;20.33;;;;;;;5.67;nan;102008.69;5111232;28;20366;-72
2022/03/17 09:08:04;;;;;;;55.88;25.17;;;;;;;5.76;nan;102019.03;5105135;28;20055;-72
2022/03/17 09:10:30;;;;;;;50.88;24.52;;;;;;;5.84;nan;102022.69;5112622;28;20386;-71
2022/03/17 09:12:57;;;;;;;33.33;19.08;;;;;;;5.94;nan;102013.81;5106814;28;20031;-72
2022/03/17 09:15:25;;;;;;;29.10;16.88;;;;;;;6.02;nan;102044.41;5106686;28;20119;-72
2022/03/17 09:17:51;;;;;;;46.28;24.67;;;;;;;6.08;nan;102015.03;5089853;28;20547;-73
2022/03/17 09:20:17;;;;;;;34.92;18.77;;;;;;;6.29;nan;102034.75;5099411;28;20107;-72
2022/03/17 09:22:43;;;;;;;32.00;18.08;;;;;;;6.42;nan;102032.53;5097873;28;20028;-71
2022/03/17 09:25:10;;;;;;;33.03;19.15;;;;;;;6.41;nan;102037.91;5080858;28;20031;-73
2022/03/17 09:27:36;;;;;;;39.88;20.08;;;;;;;6.39;nan;102028.44;5086766;28;20354;-73
2022/03/17 09:30:03;;;;;;;31.58;17.67;;;;;;;6.50;nan;102045.63;5105338;28;20032;-74
2022/03/17 09:32:28;;;;;;;32.80;18.63;;;;;;;6.49;nan;102045.78;5099367;28;20036;-74
2022/03/17 09:34:54;;;;;;;42.90;23.85;;;;;;;6.56;nan;102057.25;5102550;28;20787;-74
2022/03/17 09:37:19;;;;;;;42.03;22.77;;;;;;;6.65;nan;102052.88;5101936;28;20038;-75
2022/03/17 09:39:45;;;;;;;32.67;18.75;;;;;;;6.73;nan;102050.31;5111542;28;20118;-76
2022/03/17 09:42:14;;;;;;;44.25;22.38;;;;;;;6.74;nan;102051.94;5088649;28;20047;-74
2022/03/17 09:44:39;;;;;;;34.40;19.53;;;;;;;6.79;nan;102060.94;5087528;28;21010;-73
2022/03/17 09:47:08;;;;;;;31.23;18.23;;;;;;;6.76;nan;102063.91;5078813;28;20127;-74
2022/03/17 09:49:37;;;;;;;33.30;19.63;;;;;;;6.66;nan;102054.53;5093222;28;20038;-74
2022/03/17 09:52:10;;;;;;;29.85;18.00;;;;;;;6.75;nan;102069.28;5111585;28;20058;-74
2022/03/17 09:54:35;;;;;;;32.53;19.13;;;;;;;6.70;nan;102067.13;5083258;28;20039;-74
2022/03/17 09:57:01;;;;;;;29.92;18.05;;;;;;;6.63;nan;102067.94;5107966;28;20031;-74
2022/03/17 09:59:26;;;;;;;35.55;19.17;;;;;;;6.66;nan;102067.63;5092964;28;20040;-74
2022/03/17 10:01:53;;;;;;;36.50;20.15;;;;;;;6.65;nan;102060.75;5079413;28;20103;-74
2022/03/17 10:04:18;;;;;;;34.90;19.85;;;;;;;6.69;nan;102067.31;5097803;28;20039;-74
2022/03/17 10:06:43;;;;;;;33.85;19.88;;;;;;;6.75;nan;102066.66;5102850;28;20443;-74
2022/03/17 10:09:09;;;;;;;32.33;18.38;;;;;;;6.67;nan;102053.56;5091925;28;20039;-74
2022/03/17 10:11:37;;;;;;;35.03;20.75;;;;;;;6.55;nan;102039.94;5101168;28;20676;-74
2022/03/17 10:14:05;;;;;;;32.83;18.20;;;;;;;6.76;nan;102068.31;5097721;28;20506;-74
2022/03/17 10:16:31;;;;;;;38.15;21.15;;;;;;;6.85;nan;102069.16;5108895;28;20055;-74
2022/03/17 10:19:04;;;;;;;37.83;21.33;;;;;;;6.97;nan;102073.94;5078723;28;20504;-73
2022/03/17 10:21:31;;;;;;;32.28;19.33;;;;;;;6.93;nan;102062.13;5099609;28;20028;-71
2022/03/17 10:24:07;;;;;;;31.83;19.15;;;;;;;6.95;nan;102067.22;5111001;28;20118;-72
2022/03/17 10:26:43;;;;;;;31.83;19.45;;;;;;;6.86;nan;102081.28;5093079;28;20035;-72
2022/03/17 10:29:12;;;;;;;34.83;20.77;;;;;;;6.86;nan;102076.84;5079135;28;20028;-73
2022/03/17 10:31:51;;;;;;;;;;;;;;;6.82;nan;102080.75;5085186;28;20427;-72
2022/03/17 10:34:20;;;;;;;34.53;19.85;;;;;;;6.85;nan;102077.00;5091925;28;19920;-72
2022/03/17 10:36:45;;;;;;;34.88;20.02;;;;;;;;;;5109035;28;20032;-72
2022/03/17 10:39:11;;;;;;;34.83;19.35;;;;;;;;;;5081570;28;20047;-72
2022/03/17 10:41:45;;;;;;;34.92;20.90;;;;;;;;;;5106268;28;20040;-73
2022/03/17 10:44:15;;;;;;;34.45;20.83;;;;;;;;;;5088957;28;20115;-73
2022/03/17 10:47:01;;;;;;;33.67;20.25;;;;;;;;;;5090333;28;20496;-71
2022/03/17 10:49:27;;;;;;;34.60;20.00;;;;;;;;;;5106049;28;20035;-71
2022/03/17 10:51:54;;;;;;;36.13;21.35;;;;;;;7.20;nan;102081.19;5094683;28;20092;-72
2022/03/17 10:54:20;;;;;;;34.33;20.35;;;;;;;;;;5105162;28;20451;-72
2022/03/17 10:57:02;;;;;;;36.95;21.50;;;;;;;;;;5109944;28;20024;-73
2022/03/17 10:59:43;;;;;;;35.20;21.10;;;;;;;;;;5088553;28;20058;-72
2022/03/17 11:02:09;;;;;;;37.13;21.45;;;;;;;;;;5108876;28;20371;-74
2022/03/17 11:04:35;;;;;;;34.33;20.40;;;;;;;;;;5115943;28;20088;-74
2022/03/17 11:07:02;;;;;;;36.28;21.85;;;;;;;;;;5114606;28;20039;-73
2022/03/17 11:09:28;;;;;;;37.45;21.73;;;;;;;;;;5090207;28;20039;-72
2022/03/17 11:11:53;;;;;;;39.63;23.07;;;;;;;;;;5114370;28;20038;-73
2022/03/17 11:14:19;;;;;;;37.55;22.88;;;;;;;;;;5114621;28;20287;-73
2022/03/17 11:16:47;;;;;;;44.20;22.60;;;;;;;;;;5112835;28;20397;-73
2022/03/17 11:19:15;;;;;;;36.85;22.17;;;;;;;;;;5095170;28;20040;-74
2022/03/17 11:21:44;;;;;;;36.93;22.87;;;;;;;;;;5106920;28;20092;-74
2022/03/17 11:24:17;;;;;;;35.30;22.15;;;;;;;;;;5095388;28;20264;-74
2022/03/17 11:26:44;;;;;;;38.75;21.88;;;;;;;;;;5079589;28;20079;-73
2022/03/17 11:29:10;;;;;;;36.30;21.90;;;;;;;;;;5108712;28;20035;-72
2022/03/17 11:31:50;;;;;;;34.58;21.88;;;;;;;;;;5076133;28;20036;-72
2022/03/17 11:34:37;;;;;;;36.13;21.35;;;;;;;;;;5104211;28;20039;-73
2022/03/17 11:37:15;;;;;;;36.78;22.02;;;;;;;;;;5099491;28;20480;-72
2022/03/17 11:39:59;;;;;;;35.15;20.98;;;;;;;;;;5098139;28;20036;-73
2022/03/17 11:42:31;;;;;;;36.47;21.80;;;;;;;;;;5083472;28;20042;-72
2022/03/17 11:45:00;;;;;;;35.70;20.85;;;;;;;;;;5108113;28;20078;-72
2022/03/17 11:47:26;;;;;;;37.70;22.57;;;;;;;;;;5089530;28;20085;-73
2022/03/17 11:49:51;;;;;;;36.35;21.35;;;;;;;;;;5110519;28;20276;-73
2022/03/17 11:52:17;;;;;;;33.10;20.92;;;;;;;;;;5072465;28;20036;-72
2022/03/17 11:54:42;;;;;;;34.92;21.15;;;;;;;;;;5088071;28;20032;-72
2022/03/17 11:57:07;;;;;;;37.17;22.27;;;;;;;;;;5100288;28;20038;-73